createdAt,value
2023-01-06T00:03:35.571Z,101464.50
2023-01-06T00:08:37.592Z,101467.09
2023-01-06T00:13:40.386Z,101458.44
2023-01-06T00:18:42.417Z,101448.97
2023-01-06T00:23:44.136Z,101430.00
2023-01-06T00:28:45.614Z,101427.41
2023-01-06T00:33:47.095Z,101421.41
2023-01-06T00:38:49.994Z,101408.41
2023-01-06T00:43:51.490Z,101413.63
2023-01-06T00:49:04.197Z,101403.22
2023-01-06T00:54:08.463Z,101387.69
2023-01-06T00:59:11.931Z,101381.66
2023-01-06T01:04:14.081Z,101360.94
2023-01-06T01:09:24.333Z,101358.38
2023-01-06T01:14:25.842Z,101346.25
2023-01-06T01:19:28.192Z,101341.97
2023-01-06T01:24:29.873Z,101341.09
2023-01-06T01:29:31.336Z,101331.56
2023-01-06T01:34:32.917Z,101334.19
2023-01-06T01:39:34.408Z,101322.09
2023-01-06T01:44:58.966Z,101316.91
2023-01-06T01:50:09.649Z,101309.13
2023-01-06T01:55:12.584Z,101302.22
2023-01-06T02:00:14.650Z,101302.22
2023-01-06T02:05:21.284Z,101300.50
2023-01-06T02:10:24.400Z,101290.13
2023-01-06T02:15:31.692Z,101290.13
2023-01-06T02:21:01.007Z,101278.00
2023-01-06T02:26:11.499Z,101262.44
2023-01-06T02:31:37.623Z,101253.81
2023-01-06T02:36:52.730Z,101251.22
2023-01-06T02:42:01.465Z,101234.78
2023-01-06T02:47:24.185Z,101245.16
2023-01-06T02:52:40.895Z,101235.63
2023-01-06T02:57:49.382Z,101217.44
2023-01-06T03:02:57.702Z,101214.00
2023-01-06T03:08:02.282Z,101194.97
2023-01-06T03:13:15.802Z,101186.25
2023-01-06T03:18:17.745Z,101171.56
2023-01-06T03:23:20.247Z,101168.09
2023-01-06T03:28:21.706Z,101168.84
2023-01-06T03:33:37.843Z,101164.50
2023-01-06T03:38:52.314Z,101160.19
2023-01-06T03:44:05.623Z,101142.81
2023-01-06T03:49:36.051Z,101141.03
2023-01-06T03:54:52.380Z,101133.16
2023-01-06T04:00:03.482Z,101117.59
2023-01-06T04:05:10.553Z,101113.25
2023-01-06T04:10:16.028Z,101092.34
2023-01-06T04:15:23.434Z,101088.88
2023-01-06T04:20:28.137Z,101097.47
2023-01-06T04:25:29.560Z,101078.38
2023-01-06T04:30:31.089Z,101070.59
2023-01-06T04:35:32.542Z,101063.66
2023-01-06T04:40:34.032Z,101060.13
2023-01-06T04:45:35.629Z,101049.66
2023-01-06T04:50:38.202Z,101040.09
2023-01-06T04:55:40.873Z,101017.53
2023-01-06T05:00:42.384Z,101007.94
2023-01-06T05:05:43.883Z,100992.28
2023-01-06T05:10:45.355Z,100993.88
2023-01-06T05:15:46.774Z,100979.06
2023-01-06T05:20:55.162Z,100976.31
2023-01-06T05:25:56.834Z,100978.88
2023-01-06T05:31:02.803Z,100971.00
2023-01-06T05:36:08.143Z,100963.19
2023-01-06T05:41:09.585Z,100957.94
2023-01-06T05:46:12.611Z,100963.84
2023-01-06T05:51:16.203Z,100950.69
2023-01-06T05:56:19.559Z,100931.44
2023-01-06T06:01:31.593Z,100927.81
2023-01-06T06:06:33.202Z,100927.69
2023-01-06T06:11:34.630Z,100924.97
2023-01-06T06:16:36.483Z,100922.22
2023-01-06T06:21:37.971Z,100921.38
2023-01-06T06:26:39.446Z,100920.41
2023-01-06T06:31:40.946Z,100912.03
2023-01-06T06:36:42.441Z,100915.31
2023-01-06T06:41:44.030Z,100912.59
2023-01-06T06:46:45.493Z,100918.56
2023-01-06T06:51:47.467Z,100888.13
2023-01-06T06:56:48.935Z,100886.31
2023-01-06T07:01:50.521Z,100881.97
2023-01-06T07:06:52.060Z,100867.25
2023-01-06T07:11:53.506Z,100860.34
2023-01-06T07:16:54.907Z,100849.63
2023-01-06T07:21:56.391Z,100840.25
2023-01-06T07:26:57.910Z,100832.34
2023-01-06T07:31:59.774Z,100827.19
2023-01-06T07:37:01.270Z,100821.13
2023-01-06T07:42:02.704Z,100812.47
2023-01-06T07:47:04.265Z,100813.31
2023-01-06T07:52:05.790Z,100809.06
2023-01-06T07:57:07.253Z,100811.66
2023-01-06T08:02:11.407Z,100807.31
2023-01-06T08:07:13.579Z,100807.41
2023-01-06T08:12:15.014Z,100803.00
2023-01-06T08:17:16.547Z,100797.81
2023-01-06T08:22:18.065Z,100788.13
2023-01-06T08:27:20.664Z,100782.88
2023-01-06T08:32:22.385Z,100789.09
2023-01-06T08:37:23.903Z,100791.59
2023-01-06T08:42:25.421Z,100786.41
2023-01-06T08:47:26.919Z,100780.16
2023-01-06T08:52:28.390Z,100759.31
2023-01-06T08:57:29.883Z,100768.91
2023-01-06T09:02:31.529Z,100774.97
2023-01-06T09:07:32.956Z,100761.78
2023-01-06T09:12:34.899Z,100774.91
2023-01-06T09:17:36.369Z,100771.50
2023-01-06T09:22:37.878Z,100778.34
2023-01-06T09:27:39.353Z,100801.59
2023-01-06T09:32:40.797Z,100824.97
2023-01-06T09:37:42.263Z,100847.53
2023-01-06T09:43:13.181Z,100849.28
2023-01-06T09:48:21.791Z,100870.16
2023-01-06T09:53:30.200Z,100865.91
2023-01-06T09:58:37.983Z,100891.91
2023-01-06T10:03:39.548Z,100888.63
2023-01-06T10:09:07.606Z,100905.75
2023-01-06T10:14:19.298Z,100917.88
2023-01-06T10:19:42.638Z,100927.06
2023-01-06T10:25:02.824Z,100937.34
2023-01-06T10:30:16.169Z,100937.03
2023-01-06T10:35:21.971Z,100940.00
2023-01-06T10:40:26.107Z,100943.78
2023-01-06T10:45:45.273Z,100960.84
2023-01-06T10:50:47.505Z,100954.47
2023-01-06T10:56:00.262Z,100968.63
2023-01-06T11:01:10.286Z,100977.41
2023-01-06T11:06:17.655Z,100979.03
2023-01-06T11:11:27.981Z,100980.91
2023-01-06T11:16:32.180Z,100976.97
2023-01-06T11:21:40.581Z,100973.56
2023-01-06T11:26:51.872Z,100981.78
2023-01-06T11:31:54.006Z,100974.88
2023-01-06T11:36:55.881Z,100982.84
2023-01-06T11:42:04.047Z,100973.84
2023-01-06T11:47:13.436Z,100966.72
2023-01-06T11:52:17.758Z,100968.47
2023-01-06T11:57:26.874Z,100978.19
2023-01-06T12:02:49.729Z,100987.06
2023-01-06T12:07:55.433Z,101009.50
2023-01-06T12:12:56.906Z,101011.38
2023-01-06T12:18:00.842Z,101011.44
2023-01-06T12:23:16.267Z,101018.44
2023-01-06T12:28:34.195Z,101022.03
2023-01-06T12:34:03.462Z,101025.47
2023-01-06T12:39:31.324Z,101011.56
2023-01-06T12:44:38.960Z,101024.84
2023-01-06T12:49:50.617Z,101043.94
2023-01-06T12:54:56.057Z,101050.00
2023-01-06T13:00:22.917Z,101061.94
2023-01-06T13:06:00.733Z,101073.13
2023-01-06T13:11:24.906Z,101068.00
2023-01-06T13:16:29.382Z,101087.03
2023-01-06T13:21:31.656Z,101089.88
2023-01-06T13:26:57.954Z,101094.25
2023-01-06T13:32:17.263Z,101107.22
2023-01-06T13:37:38.672Z,101115.13
2023-01-06T13:43:00.695Z,101113.53
2023-01-06T13:48:08.999Z,101110.13
2023-01-06T13:53:18.850Z,101113.66
2023-01-06T13:58:23.153Z,101112.09
2023-01-06T14:03:24.810Z,101125.19
2023-01-06T14:08:30.385Z,101128.72
2023-01-06T14:13:39.935Z,101141.78
2023-01-06T14:18:53.059Z,101146.25
2023-01-06T14:24:03.065Z,101146.41
2023-01-06T14:29:44.931Z,101147.31
2023-01-06T14:35:14.273Z,101158.59
2023-01-06T14:40:29.249Z,101164.72
2023-01-06T14:45:41.034Z,101159.53
2023-01-06T14:50:47.837Z,101159.63
2023-01-06T14:55:50.422Z,101153.47
2023-01-06T15:00:53.640Z,101156.03
2023-01-06T15:06:20.151Z,101157.78
2023-01-06T15:11:33.277Z,101165.56
2023-01-06T15:16:39.942Z,101165.59
2023-01-06T15:21:43.687Z,101181.19
2023-01-06T15:26:45.273Z,101182.94
2023-01-06T15:31:49.425Z,101188.97
2023-01-06T15:36:54.688Z,101192.50
2023-01-06T15:41:57.630Z,101195.09
2023-01-06T15:47:11.062Z,101187.31
2023-01-06T15:52:27.638Z,101190.78
2023-01-06T15:57:35.322Z,101198.53
2023-01-06T16:02:37.389Z,101190.00
2023-01-06T16:07:41.842Z,101192.72
2023-01-06T16:12:43.342Z,101200.50
2023-01-06T16:17:46.379Z,101199.66
2023-01-06T16:22:55.909Z,101195.28
2023-01-06T16:28:00.135Z,101192.75
2023-01-06T16:33:02.438Z,101193.56
2023-01-06T16:38:04.022Z,101198.66
2023-01-06T16:43:05.526Z,101207.34
2023-01-06T16:48:07.128Z,101204.75
2023-01-06T16:53:24.177Z,101211.72
2023-01-06T16:58:29.209Z,101212.59
2023-01-06T17:03:34.838Z,101216.09
2023-01-06T17:08:38.473Z,101221.25
2023-01-06T17:13:45.843Z,101221.41
2023-01-06T17:18:54.670Z,101225.75
2023-01-06T17:24:05.261Z,101219.78
2023-01-06T17:29:14.215Z,101233.56
2023-01-06T17:34:21.357Z,101246.50
2023-01-06T17:39:26.484Z,101254.25
2023-01-06T17:44:37.439Z,101255.09
2023-01-06T17:49:38.938Z,101252.47
2023-01-06T17:54:59.260Z,101256.75
2023-01-06T18:00:02.125Z,101262.81
2023-01-06T18:05:33.429Z,101265.53
2023-01-06T18:10:37.692Z,101272.44
2023-01-06T18:15:39.271Z,101270.69
2023-01-06T18:20:40.749Z,101276.81
2023-01-06T18:25:42.268Z,101282.03
2023-01-06T18:30:46.296Z,101281.16
2023-01-06T18:35:52.053Z,101288.09
2023-01-06T18:40:54.724Z,101295.09
2023-01-06T18:46:01.084Z,101288.19
2023-01-06T18:51:06.630Z,101302.03
2023-01-06T18:56:18.221Z,101298.59
2023-01-06T19:01:30.366Z,101292.53
2023-01-06T19:06:50.696Z,101300.28
2023-01-06T19:12:16.009Z,101298.56
2023-01-06T19:17:40.981Z,101302.88
2023-01-06T19:22:43.096Z,101305.44
2023-01-06T19:27:54.925Z,101314.09
2023-01-06T19:33:18.096Z,101317.47
2023-01-06T19:38:26.408Z,101317.44
2023-01-06T19:43:32.110Z,101322.72
2023-01-06T19:48:41.309Z,101317.47
2023-01-06T19:53:45.158Z,101306.28
2023-01-06T19:58:52.143Z,101312.34
2023-01-06T20:03:55.183Z,101309.81
2023-01-06T20:08:56.651Z,101317.63
2023-01-06T20:13:58.194Z,101321.09
2023-01-06T20:18:59.793Z,101312.50
2023-01-06T20:24:01.233Z,101309.94
2023-01-06T20:29:04.433Z,101309.97
2023-01-06T20:34:05.989Z,101312.53
2023-01-06T20:39:07.491Z,101330.72
2023-01-06T20:44:08.941Z,101333.31
2023-01-06T20:49:11.849Z,101329.88
2023-01-06T20:54:13.298Z,101326.41
2023-01-06T20:59:14.807Z,101324.69
2023-01-06T21:04:16.423Z,101324.66
2023-01-06T21:09:18.100Z,101329.81
2023-01-06T21:14:19.682Z,101320.34
2023-01-06T21:19:21.133Z,101316.00
2023-01-06T21:24:22.633Z,101325.44
2023-01-06T21:29:24.150Z,101337.53
2023-01-06T21:34:25.638Z,101329.81
2023-01-06T21:39:27.203Z,101342.72
2023-01-06T21:44:28.723Z,101339.25
2023-01-06T21:49:30.991Z,101344.38
2023-01-06T21:54:32.849Z,101338.41
2023-01-06T21:59:34.430Z,101333.22
2023-01-06T22:04:35.871Z,101331.47
2023-01-06T22:09:40.494Z,101331.44
2023-01-06T22:14:42.810Z,101337.47
2023-01-06T22:19:46.089Z,101336.59
2023-01-06T22:24:49.227Z,101339.13
2023-01-06T22:29:50.804Z,101327.94
2023-01-06T22:34:52.221Z,101330.50
2023-01-06T22:39:53.710Z,101341.75
2023-01-06T22:44:55.191Z,101342.56
2023-01-06T22:49:57.519Z,101352.91
2023-01-06T22:54:59.022Z,101358.91
2023-01-06T23:00:00.623Z,101352.88
2023-01-06T23:05:03.496Z,101345.13
2023-01-06T23:10:05.498Z,101351.16
2023-01-06T23:15:08.168Z,101356.25
2023-01-06T23:20:10.322Z,101363.13
2023-01-06T23:25:12.751Z,101346.75
2023-01-06T23:30:14.276Z,101345.06
2023-01-06T23:35:15.755Z,101346.75
2023-01-06T23:40:17.409Z,101326.03
2023-01-06T23:45:18.911Z,101354.47
2023-01-06T23:50:20.362Z,101344.94
2023-01-06T23:55:21.839Z,101353.59
